This is the latest recevied weather packets stored in our database for station/object WA6ODQ-13. If no packets are shown the sender has not sent any weather packets the latest 10 day(s).
| Time | Temp. | Humidity | Pressure | Rain* | Wind** | Luminosity | Snow |
|---|---|---|---|---|---|---|---|
| 1777925076 | 17.22° C | 64% | 1013.3 hPa | 0 mm | - | 261 W/m² | - |
| 1777924772 | 17.22° C | 65% | 1013.4 hPa | 0 mm | - | 248 W/m² | - |
| 1777924468 | 16.67° C | 66% | 1013.2 hPa | 0 mm | - | 229 W/m² | - |
| 1777924165 | 16.67° C | 66% | 1013.4 hPa | 0 mm | - | 218 W/m² | - |
| 1777923861 | 16.67° C | 67% | 1013.4 hPa | 0 mm | - | 207 W/m² | - |
| 1777923557 | 16.67° C | 66% | 1013.5 hPa | 0 mm | - | 189 W/m² | - |
| 1777923254 | 16.67° C | 68% | 1013.5 hPa | 0 mm | - | 200 W/m² | - |
| 1777922953 | 16.67° C | 69% | 1013.3 hPa | 0 mm | - | 215 W/m² | - |
| 1777922650 | 16.67° C | 66% | 1013.4 hPa | 0 mm | - | 196 W/m² | - |
| 1777922349 | 16.67° C | 67% | 1013.5 hPa | 0 mm | - | 182 W/m² | - |
| 1777922046 | 16.11° C | 67% | 1013.6 hPa | 0 mm | - | 165 W/m² | - |
| 1777921741 | 16.11° C | 68% | 1013.6 hPa | 0 mm | - | 159 W/m² | - |
| 1777921437 | 16.11° C | 68% | 1013.6 hPa | 0 mm | - | 163 W/m² | - |
| 1777921134 | 16.67° C | 66% | 1013.7 hPa | 0 mm | - | 155 W/m² | - |
| 1777920831 | 16.67° C | 65% | 1013.5 hPa | 0 mm | - | 145 W/m² | - |
| 1777920527 | 16.67° C | 64% | 1013.4 hPa | 0 mm | - | 140 W/m² | - |
| 1777920223 | 16.67° C | 66% | 1013.4 hPa | 0 mm | - | 136 W/m² | - |
| 1777919919 | 16.67° C | 65% | 1013.6 hPa | 0 mm | - | 138 W/m² | - |
| 1777919617 | 16.67° C | 68% | 1013.5 hPa | 0 mm | - | 155 W/m² | - |
| 1777919314 | 16.67° C | 69% | 1013.5 hPa | 0 mm | - | 163 W/m² | - |
| 1777919012 | 16.67° C | 67% | 1013.6 hPa | 0 mm | - | 148 W/m² | - |
| 1777918708 | 16.67° C | 64% | 1013.4 hPa | 0 mm | - | 119 W/m² | - |
| 1777918406 | 16.67° C | 63% | 1013.5 hPa | 0 mm | - | 109 W/m² | - |
| 1777918105 | 16.67° C | 62% | 1013.4 hPa | 0 mm | - | 111 W/m² | - |
| 1777917803 | 17.22° C | 64% | 1013.5 hPa | 0 mm | - | 120 W/m² | - |
* Rain latest hour (hover to see other rain measurements)
** Current wind speed in m/s (hover to see current wind gust speed)